Aeroporto :
LOGIN :

Iscrizione | Disclaimer

   EN    FR    IT 

 










Sommario :    VFR   VFR Marginale   IFR   IFR Intensivo   IFR Molto Intensivo
Visibilità : 
Base nubi : 
>= 8 km
>= 3000ft
5 / 8 km
1000 / 3000 ft
1500m / 5 km
500 / 1000 ft
800 / 1500m
200 / 500 ft
< 800m
< 200 ft
Simboli :   Temporali  Nebbia  Neve Forte  Precipitazioni Forti  Vento > 20 kt
SIGMETs :   Varie  Temporali  Ghiacco  Turbolenza  Onda orograficha  Ceneri Vulcaniche






- Altitudine del aeroporto : 42 ft
- Codice IATA : LMO


EGQS - Lossiemouth

ULTIMO METAR :
  • 192250Z 20007KT 9999 FEW020 BKN250 07/05 Q0992 RMK BLU

METARs OBSOLETI :
  • 192150Z 22010KT 9999 FEW020 BKN028 08/05 Q0993 RMK BLU
  • 192050Z 22016KT 9999 SCT037 BKN110 BKN250 08/05 Q0992 RMK BLU

TAF TAF EGQS
Valido dal 20 a 00 ore il 20 a 18 ore UTC


192229Z 2000/2018 21010KT 9999 SCT030
PROB30
TEMPO 2005/2009 26015G25KT 4000 RADZ SCT010 BKN020
BECMG 2009/2012 26015G25KT
TEMPO 2012/2018 7000 SHRA SCT018
PROB30
TEMPO 2015/2018 26022G35KT 3000 SHRASN SCT014CB



MetMap, La meteo Aeronautica in un colpo d'occhio ! - Copyright ORBIFLY Dicembre 2007 - Disclaimer

ORBIFLY MET'MAP TEAM :

Programmazione e sviluppo : Alexandra Zaïnal
Concezione : Baudouin d'Aumeries
Aiuto per la programmazione : Marc-Olivier Méhu
Supporto tecnico e logistico : Manuel Goepfert
Aiuto per la traduzione : Arnaldo La Scala

Contatto : metmap@orbifly.com




FONTI E CREDITI :

   NOAA